;
Station Historical Data
Daily Summary for October 13, 2018 Units:  English    Metric   Both
Next Day »
Daily Weekly Monthly Yearly Custom
  High: Low: Average:
Temperature: 58.6 °F 39.9 °F 50 °F
Dew Point: 48.3 °F 37.5 °F 43.9 °F
Humidity: 93% 60% 80%
Wind Speed: 8.1mph 0mph 1.1mph
Wind Gust: 2.4mph - -
Wind- - South
Pressure: 30.31 in 30.16 in -
Precipitation: 0 in    
Historical Graphs
 
 
Tabular Data for October 13, 2018
Time Temperature Dew Point Pressure Wind Wind Speed Wind Gust Humidity Rainfall Rate (Hourly)
00:04 42.6 °F 40.5 °F 30.16 in Calm     92% 0 in
00:09 42.4 °F 40.3 °F 30.16 in Calm     92% 0 in
00:14 42.4 °F 40.3 °F 30.16 in Calm     92% 0 in
00:19 42.4 °F 40 °F 30.16 in Calm     91% 0 in
00:24 42.3 °F 40.1 °F 30.16 in NNE 1.4 mph   92% 0 in
00:29 42.6 °F 40.7 °F 30.16 in Calm     93% 0 in
00:34 42.8 °F 40.9 °F 30.16 in Calm     93% 0 in
00:39 43 °F 41.1 °F 30.16 in Calm     93% 0 in
00:44 43.5 °F 41.6 °F 30.16 in Calm     93% 0 in
00:49 44.2 °F 42.3 °F 30.16 in Calm     93% 0 in
00:54 44.8 °F 42.9 °F 30.16 in Calm     93% 0 in
00:59 45.1 °F 43.2 °F 30.16 in Calm     93% 0 in
01:04 45.7 °F 43.8 °F 30.16 in Calm     93% 0 in
01:09 46.2 °F 44 °F 30.16 in NW 2.3 mph   92% 0 in
01:14 46.9 °F 44.4 °F 30.16 in Calm     91% 0 in
01:19 47.3 °F 44.5 °F 30.17 in SE 1.4 mph   90% 0 in
01:24 47.8 °F 44.8 °F 30.17 in Calm     89% 0 in
01:29 48.2 °F 44.8 °F 30.17 in NNE 2.3 mph   88% 0 in
01:34 48.6 °F 45.2 °F 30.17 in Calm     88% 0 in
01:39 48.7 °F 45.3 °F 30.17 in Calm     88% 0 in
01:44 48.7 °F 45.3 °F 30.17 in NE 1.2 mph   88% 0 in
01:49 48.9 °F 45.2 °F 30.17 in Calm     87% 0 in
01:54 49.1 °F 45.4 °F 30.17 in Calm     87% 0 in
01:59 49.3 °F 45.6 °F 30.17 in Calm     87% 0 in
02:04 49.5 °F 45.4 °F 30.17 in NNE 2.3 mph   86% 0 in
02:09 49.5 °F 45.4 °F 30.17 in Calm     86% 0 in
02:14 49.5 °F 45.4 °F 30.17 in Calm     86% 0 in
02:19 49.5 °F 45.8 °F 30.18 in Calm     87% 0 in
02:24 49.5 °F 45.8 °F 30.18 in Calm     87% 0 in
02:29 49.5 °F 45.4 °F 30.18 in Calm     86% 0 in
02:34 49.5 °F 45.4 °F 30.18 in Calm     86% 0 in
02:39 49.5 °F 45.4 °F 30.18 in Calm     86% 0 in
02:44 49.5 °F 45.4 °F 30.18 in Calm     86% 0 in
02:49 49.6 °F 45.6 °F 30.18 in Calm     86% 0 in
02:54 49.6 °F 45.6 °F 30.18 in Calm     86% 0 in
02:59 49.5 °F 45.4 °F 30.18 in Calm     86% 0 in
03:04 49.5 °F 45.4 °F 30.19 in Calm     86% 0 in
03:09 49.1 °F 45.1 °F 30.19 in Calm     86% 0 in
03:14 48.7 °F 45 °F 30.19 in Calm     87% 0 in
03:19 48.6 °F 44.9 °F 30.19 in Calm     87% 0 in
03:24 48.4 °F 44.7 °F 30.19 in Calm     87% 0 in
03:29 48 °F 44.6 °F 30.19 in Calm     88% 0 in
03:34 48 °F 44.6 °F 30.19 in Calm     88% 0 in
03:39 47.8 °F 44.8 °F 30.19 in Calm     89% 0 in
03:44 47.8 °F 44.8 °F 30.19 in Calm     89% 0 in
03:49 48 °F 44.9 °F 30.19 in Calm     89% 0 in
03:54 48 °F 44.9 °F 30.19 in Calm     89% 0 in
03:59 48 °F 44.9 °F 30.19 in Calm     89% 0 in
04:04 48 °F 44.9 °F 30.19 in Calm     89% 0 in
04:09 48 °F 44.9 °F 30.19 in Calm     89% 0 in
04:14 48 °F 44.9 °F 30.19 in Calm     89% 0 in
04:19 48 °F 45.2 °F 30.19 in NE 5.8 mph   90% 0 in
04:24 48.2 °F 45.4 °F 30.19 in Calm     90% 0 in
04:29 48.4 °F 45.6 °F 30.19 in Calm     90% 0 in
04:34 48.6 °F 45.8 °F 30.19 in North 3.5 mph   90% 0 in
04:39 48.7 °F 45.6 °F 30.19 in North 1.8 mph   89% 0 in
04:44 48.7 °F 45.6 °F 30.19 in NNE 3.6 mph   89% 0 in
04:49 48.9 °F 45.8 °F 30.19 in NW 1.2 mph   89% 0 in
04:54 49.1 °F 46 °F 30.19 in Calm     89% 0 in
04:59 49.1 °F 46 °F 30.19 in Calm     89% 0 in
05:04 49.1 °F 46 °F 30.19 in NNE 3.5 mph   89% 0 in
05:09 49.3 °F 46.2 °F 30.19 in Calm     89% 0 in
05:14 49.3 °F 46.2 °F 30.19 in Calm     89% 0 in
05:19 49.3 °F 46.2 °F 30.20 in North 1.2 mph   89% 0 in
05:24 49.3 °F 46.2 °F 30.20 in Calm     89% 0 in
05:29 49.3 °F 46.2 °F 30.20 in Calm     89% 0 in
05:34 49.3 °F 45.9 °F 30.20 in Calm     88% 0 in
05:39 48.9 °F 45.2 °F 30.20 in Calm     87% 0 in
05:44 48.7 °F 45 °F 30.20 in Calm     87% 0 in
05:49 48.4 °F 44.7 °F 30.21 in SW 1.2 mph   87% 0 in
05:54 48 °F 44.3 °F 30.21 in Calm     87% 0 in
05:59 47.7 °F 44 °F 30.21 in SE 2.3 mph   87% 0 in
06:04 47.5 °F 43.8 °F 30.21 in Calm     87% 0 in
06:09 47.1 °F 43.7 °F 30.21 in Calm     88% 0 in
06:14 46.9 °F 43.3 °F 30.21 in Calm     87% 0 in
06:19 46.9 °F 43.6 °F 30.21 in Calm     88% 0 in
06:24 46.8 °F 43.4 °F 30.21 in Calm     88% 0 in
06:29 46.8 °F 43.7 °F 30.21 in Calm     89% 0 in
06:34 46.8 °F 43.7 °F 30.23 in Calm     89% 0 in
06:39 46.8 °F 43.4 °F 30.23 in Calm     88% 0 in
06:44 46.8 °F 43.7 °F 30.23 in Calm     89% 0 in
06:49 46.8 °F 43.4 °F 30.23 in Calm     88% 0 in
06:54 46.8 °F 43.1 °F 30.23 in Calm     87% 0 in
06:59 46.6 °F 42.6 °F 30.23 in Calm     86% 0 in
07:04 46.2 °F 42.3 °F 30.24 in Calm     86% 0 in
07:09 46.2 °F 42.6 °F 30.24 in Calm     87% 0 in
07:14 46 °F 42.4 °F 30.24 in Calm     87% 0 in
07:19 46 °F 42.4 °F 30.24 in Calm     87% 0 in
07:24 45.9 °F 41.9 °F 30.24 in Calm     86% 0 in
07:29 45.9 °F 42.2 °F 30.24 in Calm     87% 0 in
07:34 45.9 °F 42.2 °F 30.25 in Calm     87% 0 in
07:39 45.9 °F 42.2 °F 30.25 in Calm     87% 0 in
07:44 45.9 °F 42.2 °F 30.25 in Calm     87% 0 in
07:49 45.9 °F 42.8 °F 30.25 in Calm     89% 0 in
07:54 46 °F 42.7 °F 30.25 in Calm     88% 0 in
07:59 46 °F 43 °F 30.25 in Calm     89% 0 in
08:04 46 °F 42.7 °F 30.26 in Calm     88% 0 in
08:09 46.2 °F 42.9 °F 30.26 in Calm     88% 0 in
08:14 46.4 °F 43 °F 30.26 in Calm     88% 0 in
08:19 46.6 °F 43.2 °F 30.27 in SE 1.4 mph   88% 0 in
08:24 46.8 °F 43.4 °F 30.27 in Calm     88% 0 in
08:29 46.8 °F 43.1 °F 30.27 in Calm     87% 0 in
08:34 46.9 °F 43.6 °F 30.27 in Calm     88% 0 in
08:39 46.9 °F 43.3 °F 30.27 in Calm     87% 0 in
08:44 47.1 °F 43.4 °F 30.27 in Calm     87% 0 in
08:49 47.1 °F 43.4 °F 30.28 in Calm     87% 0 in
08:54 47.3 °F 43.6 °F 30.28 in Calm     87% 0 in
08:59 47.5 °F 43.8 °F 30.28 in Calm     87% 0 in
09:04 47.5 °F 43.8 °F 30.28 in Calm     87% 0 in
09:09 47.7 °F 44 °F 30.28 in Calm     87% 0 in
09:14 47.7 °F 44 °F 30.28 in Calm     87% 0 in
09:19 47.8 °F 44.2 °F 30.29 in Calm     87% 0 in
09:24 48 °F 44.3 °F 30.29 in Calm     87% 0 in
09:29 48.4 °F 44.7 °F 30.29 in NNE 2.3 mph   87% 0 in
09:34 48.6 °F 44.6 °F 30.30 in North 2.3 mph   86% 0 in
09:39 48.7 °F 44.7 °F 30.30 in NE 2.3 mph   86% 0 in
09:44 48.9 °F 44.6 °F 30.30 in NNW 4.6 mph   85% 0 in
09:49 48.9 °F 44.9 °F 30.30 in NNE 1.4 mph 1.8 mph 86% 0 in
09:54 49.3 °F 44.6 °F 30.30 in North 4.6 mph 1.8 mph 84% 0 in
09:59 49.5 °F 44.8 °F 30.30 in North 3.5 mph 1.4 mph 84% 0 in
10:04 49.6 °F 44.7 °F 30.30 in NNW 5.8 mph 1.4 mph 83% 0 in
10:09 49.6 °F 45 °F 30.30 in NE 3.6 mph 2.4 mph 84% 0 in
10:14 49.8 °F 44.9 °F 30.30 in NNW 3.6 mph 2.4 mph 83% 0 in
10:19 50.2 °F 45.2 °F 30.30 in NNW 3.5 mph   83% 0 in
10:24 50.4 °F 44.7 °F 30.30 in NNW 8.1 mph   81% 0 in
10:29 50.4 °F 44.7 °F 30.30 in NNW 4.6 mph 2.4 mph 81% 0 in
10:34 50.4 °F 44.7 °F 30.30 in NNW 3.6 mph 2.4 mph 81% 0 in
10:39 50.4 °F 45.1 °F 30.30 in Calm   1.8 mph 82% 0 in
10:44 50.5 °F 44.9 °F 30.30 in NNE 1.2 mph 1.8 mph 81% 0 in
10:49 50.5 °F 44.6 °F 30.30 in NE 5.8 mph   80% 0 in
10:54 50.9 °F 45.3 °F 30.30 in Calm     81% 0 in
10:59 51.4 °F 45.5 °F 30.30 in NNW 2.3 mph   80% 0 in
11:04 51.6 °F 45.3 °F 30.30 in NNE 2.3 mph   79% 0 in
11:09 52 °F 45.7 °F 30.30 in WSW 3.5 mph 1.4 mph 79% 0 in
11:14 52.5 °F 46.2 °F 30.30 in NE 2.3 mph 1.4 mph 79% 0 in
11:19 53.2 °F 46.2 °F 30.30 in Calm   1.4 mph 77% 0 in
11:24 54 °F 46.2 °F 30.30 in NW 1.2 mph 1.4 mph 75% 0 in
11:29 54.1 °F 46.4 °F 30.30 in South 2.3 mph   75% 0 in
11:34 54.7 °F 46.9 °F 30.30 in SSE 2.3 mph   75% 0 in
11:39 55 °F 46.9 °F 30.30 in Calm     74% 0 in
11:44 55.2 °F 46.3 °F 30.30 in North 1.8 mph   72% 0 in
11:49 55.6 °F 46.7 °F 30.30 in NNE 2.3 mph   72% 0 in
11:54 55.9 °F 47.8 °F 30.30 in Calm     74% 0 in
11:59 56.1 °F 47.6 °F 30.30 in NNW 1.2 mph   73% 0 in
12:04 56.5 °F 48.3 °F 30.30 in Calm     74% 0 in
12:09 56.7 °F 46.6 °F 30.30 in North 2.3 mph   69% 0 in
12:14 56.7 °F 46.6 °F 30.30 in North 5.4 mph   69% 0 in
12:19 56.5 °F 47.2 °F 30.29 in NW 5.2 mph 1.8 mph 71% 0 in
12:24 56.7 °F 47.7 °F 30.29 in North 2.4 mph 1.8 mph 72% 0 in
12:29 56.8 °F 47.2 °F 30.29 in NNW 2.9 mph 1.4 mph 70% 0 in
12:34 57 °F 47.7 °F 30.29 in Calm   1.4 mph 71% 0 in
12:39 57.4 °F 46.5 °F 30.29 in North 4.6 mph   67% 0 in
12:44 57.4 °F 47.7 °F 30.29 in Calm     70% 0 in
12:49 57.6 °F 46.7 °F 30.28 in North 4.6 mph 1.4 mph 67% 0 in
12:54 57.7 °F 46.5 °F 30.28 in NNE 3.5 mph 1.4 mph 66% 0 in
12:59 57.7 °F 47.2 °F 30.28 in NNW 3.6 mph 1.4 mph 68% 0 in
13:04 57.7 °F 46.5 °F 30.28 in North 5.8 mph 1.4 mph 66% 0 in
13:09 57.7 °F 46 °F 30.28 in North 6.9 mph 1.4 mph 65% 0 in
13:14 57.7 °F 46.9 °F 30.28 in Calm   1.4 mph 67% 0 in
13:19 57.9 °F 46.6 °F 30.28 in NNW 5.2 mph 1.4 mph 66% 0 in
13:24 57.7 °F 46.9 °F 30.28 in NNW 2.3 mph 1.4 mph 67% 0 in
13:29 57.7 °F 46 °F 30.28 in NNW 5.8 mph 1.8 mph 65% 0 in
13:34 57.7 °F 46.5 °F 30.28 in SSE 2.4 mph 1.8 mph 66% 0 in
13:39 57.7 °F 46.5 °F 30.28 in Calm   1.8 mph 66% 0 in
13:44 57.7 °F 45.2 °F 30.28 in Calm   1.8 mph 63% 0 in
13:49 57.7 °F 46 °F 30.27 in SSW 2.3 mph   65% 0 in
13:54 57.7 °F 46.5 °F 30.27 in South 1.4 mph   66% 0 in
13:59 57.7 °F 45.6 °F 30.27 in Calm     64% 0 in
14:04 57.9 °F 46.2 °F 30.27 in West 5.8 mph   65% 0 in
14:09 57.9 °F 45.8 °F 30.27 in NNW 2.3 mph 1.4 mph 64% 0 in
14:14 57.9 °F 45.8 °F 30.27 in North 5.8 mph 1.4 mph 64% 0 in
14:19 57.9 °F 47 °F 30.27 in NNE 2.3 mph 2 mph 67% 0 in
14:24 57.9 °F 46.6 °F 30.27 in Calm   2 mph 66% 0 in
14:29 57.9 °F 46.2 °F 30.27 in NNE 3.5 mph   65% 0 in
14:34 58.1 °F 47.6 °F 30.26 in Calm     68% 0 in
14:39 58.3 °F 46.6 °F 30.26 in NNW 6.9 mph 1.4 mph 65% 0 in
14:44 58.3 °F 47.8 °F 30.26 in NNE 4.6 mph 1.4 mph 68% 0 in
14:49 58.3 °F 47 °F 30.26 in WNW 2.4 mph 2 mph 66% 0 in
14:54 58.5 °F 46.7 °F 30.26 in SW 4.6 mph 2 mph 65% 0 in
14:59 58.5 °F 48.3 °F 30.26 in WSW 2.3 mph 1.4 mph 69% 0 in
15:04 58.5 °F 46.3 °F 30.26 in NNW 5.8 mph 1.4 mph 64% 0 in
15:09 58.5 °F 46.7 °F 30.26 in WSW 4.6 mph 2.4 mph 65% 0 in
15:14 58.5 °F 47.1 °F 30.26 in North 4.6 mph 2.4 mph 66% 0 in
15:19 58.5 °F 46.3 °F 30.26 in NNW 6.9 mph 1.4 mph 64% 0 in
15:24 58.5 °F 47.1 °F 30.26 in WSW 1.2 mph 1.4 mph 66% 0 in
15:29 58.5 °F 46.7 °F 30.26 in NNE 3.5 mph 1.4 mph 65% 0 in
15:34 58.5 °F 46.7 °F 30.26 in WSW 3.5 mph 1.4 mph 65% 0 in
15:39 58.5 °F 46.3 °F 30.26 in NNE 4.3 mph 1.8 mph 64% 0 in
15:44 58.5 °F 46.3 °F 30.26 in NW 2.3 mph 1.8 mph 64% 0 in
15:49 58.6 °F 47.7 °F 30.26 in NNW 2.4 mph 1.8 mph 67% 0 in
15:54 58.5 °F 46.7 °F 30.26 in North 2.4 mph 1.8 mph 65% 0 in
15:59 58.5 °F 46.7 °F 30.26 in Calm   1.4 mph 65% 0 in
16:04 58.5 °F 45.9 °F 30.26 in NNE 6.9 mph 1.4 mph 63% 0 in
16:09 58.6 °F 46.1 °F 30.26 in North 5.8 mph 2 mph 63% 0 in
16:14 58.6 °F 45.7 °F 30.26 in NE 4.7 mph 2 mph 62% 0 in
16:19 58.6 °F 45.7 °F 30.26 in South 5.2 mph 2.4 mph 62% 0 in
16:24 58.6 °F 45.7 °F 30.26 in NNW 2.3 mph 2.4 mph 62% 0 in
16:29 58.6 °F 45.2 °F 30.26 in NNE 8.1 mph 2 mph 61% 0 in
16:34 58.6 °F 44.8 °F 30.26 in North 2.3 mph 2 mph 60% 0 in
16:39 58.6 °F 45.7 °F 30.26 in ENE 3.6 mph 1.8 mph 62% 0 in
16:44 58.5 °F 46.3 °F 30.26 in West 2.3 mph 1.8 mph 64% 0 in
16:49 58.5 °F 45.1 °F 30.25 in NE 2.3 mph 1.4 mph 61% 0 in
16:54 58.3 °F 44.4 °F 30.25 in NNE 1.4 mph 1.4 mph 60% 0 in
16:59 58.3 °F 44.4 °F 30.25 in North 4.6 mph 1.4 mph 60% 0 in
17:04 58.3 °F 44.4 °F 30.25 in NNE 2.3 mph 1.4 mph 60% 0 in
17:09 58.3 °F 47 °F 30.25 in North 1.2 mph 1.4 mph 66% 0 in
17:14 57.9 °F 45 °F 30.25 in Calm   1.4 mph 62% 0 in
17:19 57.7 °F 45.2 °F 30.25 in Calm     63% 0 in
17:24 57.6 °F 44.6 °F 30.25 in Calm     62% 0 in
17:29 57.4 °F 44.9 °F 30.25 in SSW 2.3 mph   63% 0 in
17:34 57 °F 44.1 °F 30.25 in Calm     62% 0 in
17:39 56.8 °F 44 °F 30.25 in North 2.3 mph   62% 0 in
17:44 56.8 °F 44.4 °F 30.25 in Calm     63% 0 in
17:49 56.7 °F 44.2 °F 30.25 in Calm     63% 0 in
17:54 56.5 °F 44 °F 30.25 in Calm     63% 0 in
17:59 56.1 °F 44.5 °F 30.25 in Calm     65% 0 in
18:04 55.9 °F 43.9 °F 30.25 in Calm     64% 0 in
18:09 55.8 °F 43.8 °F 30.25 in NNE 2.3 mph   64% 0 in
18:14 55.4 °F 43.8 °F 30.25 in Calm     65% 0 in
18:19 55 °F 43.9 °F 30.25 in Calm     66% 0 in
18:24 54.9 °F 44.1 °F 30.25 in Calm     67% 0 in
18:29 54.3 °F 43.6 °F 30.25 in Calm     67% 0 in
18:34 54 °F 45.1 °F 30.26 in Calm     72% 0 in
18:39 53.4 °F 44.6 °F 30.26 in Calm     72% 0 in
18:44 53.1 °F 44.3 °F 30.26 in Calm     72% 0 in
18:49 52.5 °F 44.1 °F 30.26 in Calm     73% 0 in
18:54 52 °F 43.6 °F 30.26 in Calm     73% 0 in
18:59 51.4 °F 43.4 °F 30.26 in Calm     74% 0 in
19:04 50.9 °F 43.6 °F 30.26 in Calm     76% 0 in
19:09 50.4 °F 43.4 °F 30.26 in Calm     77% 0 in
19:14 49.8 °F 43.2 °F 30.26 in Calm     78% 0 in
19:19 49.5 °F 43.2 °F 30.27 in Calm     79% 0 in
19:24 48.9 °F 42.7 °F 30.27 in Calm     79% 0 in
19:29 48.7 °F 42.5 °F 30.27 in Calm     79% 0 in
19:34 48.4 °F 42.5 °F 30.26 in Calm     80% 0 in
19:39 48 °F 42.1 °F 30.26 in Calm     80% 0 in
19:44 47.8 °F 42.3 °F 30.26 in Calm     81% 0 in
19:49 47.7 °F 42.1 °F 30.27 in Calm     81% 0 in
19:54 47.5 °F 41.9 °F 30.27 in Calm     81% 0 in
19:59 47.1 °F 41.9 °F 30.27 in Calm     82% 0 in
20:04 46.9 °F 41.7 °F 30.27 in Calm     82% 0 in
20:09 46.8 °F 41.9 °F 30.27 in Calm     83% 0 in
20:14 46.4 °F 41.5 °F 30.27 in Calm     83% 0 in
20:19 46.2 °F 41.3 °F 30.27 in Calm     83% 0 in
20:24 46 °F 41.5 °F 30.27 in Calm     84% 0 in
20:29 45.7 °F 41.1 °F 30.27 in Calm     84% 0 in
20:34 45.3 °F 41.1 °F 30.27 in Calm     85% 0 in
20:39 45.1 °F 40.9 °F 30.27 in Calm     85% 0 in
20:44 45 °F 40.7 °F 30.27 in Calm     85% 0 in
20:49 44.8 °F 40.8 °F 30.28 in Calm     86% 0 in
20:54 44.4 °F 40.5 °F 30.28 in Calm     86% 0 in
20:59 44.2 °F 40.3 °F 30.28 in Calm     86% 0 in
21:04 44.1 °F 40.4 °F 30.28 in Calm     87% 0 in
21:09 43.9 °F 40.3 °F 30.28 in Calm     87% 0 in
21:14 43.7 °F 40.1 °F 30.28 in Calm     87% 0 in
21:19 43.5 °F 39.9 °F 30.28 in Calm     87% 0 in
21:24 43.3 °F 39.7 °F 30.28 in Calm     87% 0 in
21:29 43.2 °F 39.8 °F 30.28 in Calm     88% 0 in
21:34 43.2 °F 39.8 °F 30.28 in Calm     88% 0 in
21:39 43.2 °F 39.8 °F 30.28 in Calm     88% 0 in
21:44 43 °F 39.7 °F 30.28 in Calm     88% 0 in
21:49 43 °F 39.7 °F 30.29 in Calm     88% 0 in
21:54 42.8 °F 39.5 °F 30.29 in Calm     88% 0 in
21:59 42.6 °F 39.3 °F 30.29 in Calm     88% 0 in
22:04 42.4 °F 39.1 °F 30.29 in Calm     88% 0 in
22:09 42.4 °F 39.4 °F 30.29 in Calm     89% 0 in
22:14 42.3 °F 39.2 °F 30.29 in Calm     89% 0 in
22:19 42.3 °F 39.2 °F 30.29 in Calm     89% 0 in
22:24 42.1 °F 39.1 °F 30.29 in Calm     89% 0 in
22:29 41.9 °F 38.9 °F 30.29 in Calm     89% 0 in
22:34 41.7 °F 39 °F 30.29 in Calm     90% 0 in
22:39 41.7 °F 39 °F 30.29 in Calm     90% 0 in
22:44 41.5 °F 38.8 °F 30.29 in Calm     90% 0 in
22:49 41.5 °F 38.8 °F 30.30 in Calm     90% 0 in
22:54 41.4 °F 38.6 °F 30.30 in Calm     90% 0 in
22:59 41.2 °F 38.5 °F 30.30 in Calm     90% 0 in
23:04 41.2 °F 38.5 °F 30.30 in Calm     90% 0 in
23:09 40.8 °F 38.4 °F 30.30 in Calm     91% 0 in
23:14 40.8 °F 38.4 °F 30.30 in Calm     91% 0 in
23:19 40.8 °F 38.4 °F 30.30 in Calm     91% 0 in
23:24 40.6 °F 38.2 °F 30.30 in Calm     91% 0 in
23:29 40.6 °F 38.2 °F 30.30 in Calm     91% 0 in
23:34 40.5 °F 37.8 °F 30.30 in Calm     90% 0 in
23:39 40.3 °F 37.9 °F 30.30 in Calm     91% 0 in
23:44 40.3 °F 37.9 °F 30.30 in Calm     91% 0 in
23:49 40.1 °F 37.7 °F 30.31 in Calm     91% 0 in
23:54 40.1 °F 38 °F 30.31 in Calm     92% 0 in
23:59 39.9 °F 37.5 °F 30.31 in Calm     91% 0 in
Amateur Radio Station WA6MVG